Time;durP1;ratioP1;P1;durP2;ratioP2;P2;SDS_P1;SDS_P2;PMS_P1;PMS_P2;Temp;Humidity;BMP_temperature;BMP_pressure;BME280_temperature;BME280_humidity;BME280_pressure;Samples;Min_cycle;Max_cycle;Signal;HPM_P1;HPM_P2
2023/01/10 00:00:42;;;;;;;6.03;1.08;;;;;12.20;100928.00;;;;5057783;28;20620;-75
2023/01/10 00:03:11;;;;;;;4.78;1.20;;;;;12.10;100940.00;;;;5063597;28;20286;-75
2023/01/10 00:05:40;;;;;;;8.73;1.20;;;;;12.10;100944.00;;;;5048490;28;20203;-75
2023/01/10 00:08:08;;;;;;;6.82;1.38;;;;;12.10;100961.00;;;;5048437;28;20226;-76
2023/01/10 00:10:35;;;;;;;4.85;1.15;;;;;12.10;100966.00;;;;5048303;28;20198;-76
2023/01/10 00:16:09;;;;;;;3.75;1.10;;;;;12.00;100984.00;;;;5016697;28;20208;-76
2023/01/10 00:18:36;;;;;;;3.15;1.15;;;;;12.10;100981.00;;;;5040122;28;20211;-76
2023/01/10 00:21:08;;;;;;;6.25;0.82;;;;;12.10;100993.00;;;;5049169;28;20219;-76
2023/01/10 00:23:35;;;;;;;5.30;1.10;;;;;12.10;100981.00;;;;5052446;28;20553;-76
2023/01/10 00:26:03;;;;;;;4.90;0.80;;;;;12.20;101001.00;;;;5067957;28;20191;-76
2023/01/10 00:28:33;;;;;;;3.33;0.70;;;;;12.10;100997.00;;;;5064038;28;20639;-76
2023/01/10 00:31:05;;;;;;;3.28;0.88;;;;;12.20;100994.00;;;;5047725;28;20219;-76
2023/01/10 00:33:32;;;;;;;4.45;1.17;;;;;12.20;100990.00;;;;5047394;28;20215;-74
2023/01/10 00:36:00;;;;;;;7.13;1.33;;;;;12.20;101004.00;;;;5048327;28;20286;-74
2023/01/10 00:38:29;;;;;;;6.18;1.48;;;;;12.20;101005.00;;;;5047627;28;20235;-74
2023/01/10 00:40:57;;;;;;;5.03;1.10;;;;;12.20;100999.00;;;;5048013;28;20216;-74
2023/01/10 00:46:11;;;;;;;6.78;1.35;;;;;12.20;101010.00;;;;5058018;28;20292;-74
2023/01/10 00:48:39;;;;;;;5.85;1.35;;;;;12.20;101013.00;;;;5057644;28;20250;-73
2023/01/10 00:51:07;;;;;;;5.53;1.35;;;;;12.20;101013.00;;;;5056455;28;20270;-74
2023/01/10 00:53:35;;;;;;;3.80;1.08;;;;;12.20;101018.00;;;;5065815;28;20234;-73
2023/01/10 00:56:02;;;;;;;3.83;1.55;;;;;12.20;101013.00;;;;5065068;28;20283;-74
2023/01/10 00:58:31;;;;;;;5.07;1.08;;;;;12.20;101022.00;;;;5047857;28;20207;-73
2023/01/10 01:00:59;;;;;;;5.80;1.10;;;;;12.20;101026.00;;;;5054462;28;20668;-74
2023/01/10 01:03:28;;;;;;;7.25;1.45;;;;;12.20;101021.00;;;;5050843;28;20196;-74
2023/01/10 01:05:56;;;;;;;5.65;1.38;;;;;12.20;101020.00;;;;5058226;28;20734;-74
2023/01/10 01:08:23;;;;;;;4.47;1.10;;;;;12.30;101028.00;;;;5048465;28;20251;-73
2023/01/10 01:10:51;;;;;;;6.57;0.75;;;;;12.30;101031.00;;;;5055755;28;20649;-74
2023/01/10 01:13:21;;;;;;;3.80;1.00;;;;;12.30;101041.00;;;;5051207;28;20685;-74
2023/01/10 01:15:49;;;;;;;6.03;1.30;;;;;12.30;101034.00;;;;5047906;28;20296;-74
2023/01/10 01:18:19;;;;;;;1.95;0.68;;;;;12.30;101036.00;;;;5047225;28;20231;-74
2023/01/10 01:20:52;;;;;;;4.10;0.85;;;;;12.20;101041.00;;;;5048247;28;20290;-74
2023/01/10 01:23:19;;;;;;;4.78;1.38;;;;;12.30;101036.00;;;;5048201;28;20188;-74
2023/01/10 01:25:50;;;;;;;3.50;0.82;;;;;12.20;101048.00;;;;5047895;28;20184;-74
2023/01/10 01:28:18;;;;;;;5.28;1.17;;;;;12.30;101048.00;;;;5048100;28;20196;-74
2023/01/10 01:30:46;;;;;;;4.82;1.10;;;;;12.30;101046.00;;;;5048118;28;20222;-74
2023/01/10 01:33:15;;;;;;;9.05;1.50;;;;;12.30;101062.00;;;;5061224;28;20761;-74
2023/01/10 01:35:43;;;;;;;4.65;1.10;;;;;12.30;101062.00;;;;5067355;28;20195;-74
2023/01/10 01:38:12;;;;;;;4.78;0.82;;;;;12.30;101065.00;;;;5054073;28;20682;-74
2023/01/10 01:40:40;;;;;;;3.55;1.05;;;;;12.30;101068.00;;;;5049196;28;20242;-74
2023/01/10 01:43:24;;;;;;;3.25;0.75;;;;;12.20;101072.00;;;;5063668;28;20257;-74
2023/01/10 01:45:52;;;;;;;2.83;0.93;;;;;12.40;101079.00;;;;5070427;28;20233;-74
2023/01/10 01:48:32;;;;;;;4.25;1.30;;;;;12.30;101076.00;;;;5071013;28;20287;-75
2023/01/10 01:51:06;;;;;;;5.45;1.27;;;;;12.40;101082.00;;;;5072137;28;20560;-75
2023/01/10 01:53:41;;;;;;;4.47;0.98;;;;;12.40;101086.00;;;;5056243;28;20269;-74
2023/01/10 01:56:14;;;;;;;5.03;1.48;;;;;12.40;101083.00;;;;5059946;28;20264;-75
2023/01/10 01:58:48;;;;;;;4.47;1.17;;;;;12.40;101087.00;;;;5065760;28;20237;-75
2023/01/10 02:01:17;;;;;;;6.80;1.27;;;;;12.40;101080.00;;;;5070614;28;20225;-75
2023/01/10 02:03:48;;;;;;;3.63;0.70;;;;;12.40;101091.00;;;;5070638;28;20605;-75
2023/01/10 02:06:18;;;;;;;5.38;1.33;;;;;12.50;101092.00;;;;5066583;28;20540;-75
2023/01/10 02:08:55;;;;;;;4.72;0.70;;;;;12.40;101094.00;;;;5051869;28;20286;-75
2023/01/10 02:11:23;;;;;;;5.78;1.55;;;;;12.50;101107.00;;;;5058341;28;20675;-75
2023/01/10 02:13:52;;;;;;;5.70;1.35;;;;;12.50;101103.00;;;;5066569;28;20660;-75
2023/01/10 02:16:19;;;;;;;8.13;1.42;;;;;12.50;101100.00;;;;5056742;28;20282;-75
2023/01/10 02:18:46;;;;;;;4.32;0.70;;;;;12.50;101109.00;;;;5050418;28;20204;-75
2023/01/10 02:21:30;;;;;;;2.58;0.82;;;;;12.50;101102.00;;;;5050969;28;20203;-75
2023/01/10 02:24:29;;;;;;;2.95;0.60;;;;;12.50;101101.00;;;;5049952;28;20234;-75
2023/01/10 02:27:15;;;;;;;3.70;0.80;;;;;12.50;101110.00;;;;5051263;28;20257;-75
2023/01/10 02:30:09;;;;;;;6.93;1.08;;;;;12.50;101117.00;;;;5048748;28;20290;-75
2023/01/10 02:32:43;;;;;;;3.80;0.63;;;;;12.60;101114.00;;;;5041514;28;20774;-75
2023/01/10 02:35:27;;;;;;;2.28;0.80;;;;;12.60;101120.00;;;;5062335;28;20275;-75
2023/01/10 02:38:05;;;;;;;3.78;0.70;;;;;12.60;101119.00;;;;5054138;28;20254;-75
2023/01/10 02:40:47;;;;;;;4.95;1.05;;;;;12.60;101116.00;;;;5049982;28;20304;-75
2023/01/10 02:43:17;;;;;;;3.85;0.98;;;;;12.70;101125.00;;;;5050572;28;20206;-75
2023/01/10 02:45:49;;;;;;;3.53;0.45;;;;;12.70;101111.00;;;;5061254;28;20700;-75
2023/01/10 02:48:18;;;;;;;8.38;1.13;;;;;12.70;101108.00;;;;5066921;28;20200;-75
2023/01/10 02:50:58;;;;;;;7.35;0.98;;;;;12.70;101117.00;;;;5049803;28;20246;-75
2023/01/10 02:53:30;;;;;;;4.53;1.13;;;;;12.80;101120.00;;;;5062609;28;20314;-75
2023/01/10 02:56:28;;;;;;;3.38;0.80;;;;;12.70;101114.00;;;;5049977;28;20188;-75
2023/01/10 02:59:29;;;;;;;5.47;1.58;;;;;12.70;101115.00;;;;5040817;28;20593;-75
2023/01/10 03:01:59;;;;;;;5.82;0.90;;;;;12.80;101120.00;;;;5054823;28;20237;-75
2023/01/10 03:04:41;;;;;;;4.95;0.93;;;;;12.80;101123.00;;;;5069958;28;20211;-75
2023/01/10 03:07:17;;;;;;;4.93;1.25;;;;;12.80;101133.00;;;;5056512;28;20207;-75
2023/01/10 03:09:52;;;;;;;5.35;0.60;;;;;12.80;101137.00;;;;5058586;28;20191;-75
2023/01/10 03:12:24;;;;;;;5.85;0.95;;;;;12.80;101130.00;;;;5065800;28;20557;-75
2023/01/10 03:14:55;;;;;;;5.75;1.58;;;;;12.80;101143.00;;;;5069131;28;20234;-75
2023/01/10 03:17:24;;;;;;;5.40;0.93;;;;;12.90;101155.00;;;;5052910;28;20306;-75
2023/01/10 03:19:57;;;;;;;6.80;1.58;;;;;12.80;101160.00;;;;5062354;28;20198;-75
2023/01/10 03:22:26;;;;;;;4.68;1.00;;;;;12.80;101161.00;;;;5063428;28;20727;-75
2023/01/10 03:24:56;;;;;;;4.10;0.90;;;;;12.80;101167.00;;;;5049625;28;20660;-75
2023/01/10 03:27:29;;;;;;;5.30;1.38;;;;;12.80;101166.00;;;;5050561;28;20618;-75
2023/01/10 03:30:04;;;;;;;3.13;0.95;;;;;12.80;101165.00;;;;5049644;28;20286;-75
2023/01/10 03:32:33;;;;;;;3.72;1.33;;;;;12.80;101169.00;;;;5058522;28;20225;-75
2023/01/10 03:35:03;;;;;;;6.47;1.13;;;;;12.80;101174.00;;;;5067506;28;20611;-75
2023/01/10 03:37:38;;;;;;;4.55;1.38;;;;;12.80;101184.00;;;;5050568;28;20287;-75
2023/01/10 03:40:14;;;;;;;5.07;0.95;;;;;12.80;101183.00;;;;5048416;28;20226;-75
2023/01/10 03:45:43;;;;;;;1.83;0.65;;;;;12.70;101184.00;;;;5057180;28;20280;-75
2023/01/10 03:48:14;;;;;;;7.47;1.33;;;;;12.70;101190.00;;;;5056514;28;20278;-75
2023/01/10 03:50:44;;;;;;;3.40;0.80;;;;;12.70;101191.00;;;;5068171;28;20648;-75
2023/01/10 03:53:14;;;;;;;5.68;1.15;;;;;12.70;101189.00;;;;5056893;28;20224;-75
2023/01/10 03:55:44;;;;;;;10.45;1.73;;;;;12.70;101192.00;;;;5048982;28;20271;-74
2023/01/10 03:58:11;;;;;;;5.05;0.95;;;;;12.70;101192.00;;;;5052759;28;20196;-75
2023/01/10 04:00:40;;;;;;;5.53;1.13;;;;;12.70;101199.00;;;;5056461;28;20495;-75
2023/01/10 04:03:08;;;;;;;2.58;1.00;;;;;12.70;101213.00;;;;5066072;28;20272;-74
2023/01/10 04:05:36;;;;;;;3.97;1.15;;;;;12.70;101201.00;;;;5067102;28;20203;-75
2023/01/10 04:08:05;;;;;;;2.88;0.68;;;;;12.70;101205.00;;;;5054030;28;20291;-74
2023/01/10 04:10:33;;;;;;;4.10;0.98;;;;;12.70;101206.00;;;;5050113;28;20234;-75
2023/01/10 04:13:02;;;;;;;9.50;1.42;;;;;12.70;101216.00;;;;5057594;28;20642;-75
2023/01/10 04:15:30;;;;;;;4.47;0.95;;;;;12.70;101213.00;;;;5051316;28;20653;-75
2023/01/10 04:17:58;;;;;;;4.68;0.93;;;;;12.70;101210.00;;;;5049185;28;20238;-75
2023/01/10 04:20:26;;;;;;;3.38;0.98;;;;;12.60;101213.00;;;;5057123;28;20286;-75
2023/01/10 04:22:54;;;;;;;3.38;0.93;;;;;12.60;101222.00;;;;5060364;28;20199;-75
2023/01/10 04:25:23;;;;;;;6.05;0.93;;;;;12.60;101229.00;;;;5048710;28;20227;-75
2023/01/10 04:27:51;;;;;;;3.97;1.10;;;;;12.60;101230.00;;;;5060598;28;20677;-75
2023/01/10 04:30:19;;;;;;;6.82;1.15;;;;;12.60;101233.00;;;;5067150;28;20238;-75
2023/01/10 04:32:48;;;;;;;5.75;1.80;;;;;12.60;101250.00;;;;5057678;28;20255;-75
2023/01/10 04:35:15;;;;;;;5.85;1.30;;;;;12.60;101250.00;;;;5049658;28;20317;-75
2023/01/10 04:37:43;;;;;;;5.85;1.10;;;;;12.60;101253.00;;;;5068969;28;20203;-75
2023/01/10 04:40:11;;;;;;;6.00;1.17;;;;;12.60;101261.00;;;;5050867;28;20187;-75
2023/01/10 04:42:40;;;;;;;6.15;1.33;;;;;12.60;101257.00;;;;5050074;28;20314;-75
2023/01/10 04:45:10;;;;;;;5.35;1.27;;;;;12.60;101260.00;;;;5049297;28;20690;-75
2023/01/10 04:47:38;;;;;;;5.53;1.05;;;;;12.60;101259.00;;;;5058413;28;20199;-75
2023/01/10 04:50:05;;;;;;;5.45;1.08;;;;;12.60;101265.00;;;;5060915;28;20212;-75
2023/01/10 04:52:33;;;;;;;6.05;1.00;;;;;12.60;101264.00;;;;5048120;28;20227;-75
2023/01/10 04:55:00;;;;;;;5.72;1.00;;;;;12.70;101264.00;;;;5048116;28;20195;-75
2023/01/10 04:57:27;;;;;;;6.13;1.42;;;;;12.70;101266.00;;;;5051114;28;20202;-74
2023/01/10 04:59:56;;;;;;;6.15;1.25;;;;;12.70;101263.00;;;;5058809;28;20199;-75
2023/01/10 05:02:23;;;;;;;6.28;1.15;;;;;12.70;101274.00;;;;5050868;28;20215;-75
2023/01/10 05:04:50;;;;;;;7.35;1.63;;;;;12.70;101271.00;;;;5049994;28;20207;-75
2023/01/10 05:07:17;;;;;;;4.03;1.05;;;;;12.60;101264.00;;;;5049753;28;20196;-75
2023/01/10 05:09:44;;;;;;;6.75;1.08;;;;;12.60;101264.00;;;;5049936;28;20194;-75
2023/01/10 05:12:12;;;;;;;4.75;0.90;;;;;12.60;101264.00;;;;5048102;28;20670;-75
2023/01/10 05:14:39;;;;;;;4.75;1.42;;;;;12.60;101273.00;;;;5061332;28;20672;-75
2023/01/10 05:17:07;;;;;;;6.00;1.35;;;;;12.50;101275.00;;;;5054492;28;20934;-74
2023/01/10 05:19:35;;;;;;;5.80;1.60;;;;;12.50;101282.00;;;;5059550;28;20195;-75
2023/01/10 05:22:02;;;;;;;8.73;1.60;;;;;12.50;101295.00;;;;5072359;28;20191;-75
2023/01/10 05:24:29;;;;;;;4.95;0.85;;;;;12.50;101299.00;;;;5056466;28;20198;-75
2023/01/10 05:26:56;;;;;;;5.35;1.30;;;;;12.50;101303.00;;;;5058081;28;20214;-75
2023/01/10 05:29:24;;;;;;;6.72;1.00;;;;;12.50;101309.00;;;;5062103;28;20196;-75
2023/01/10 05:31:51;;;;;;;4.43;0.85;;;;;12.40;101312.00;;;;5059523;28;20612;-75
2023/01/10 05:34:20;;;;;;;5.25;0.85;;;;;12.50;101314.00;;;;5055181;28;20238;-75
2023/01/10 05:36:47;;;;;;;4.78;1.00;;;;;12.50;101312.00;;;;5051541;28;20200;-75
2023/01/10 05:39:15;;;;;;;6.40;1.63;;;;;12.50;101317.00;;;;5056120;28;20203;-75
2023/01/10 05:41:42;;;;;;;5.45;1.70;;;;;12.50;101305.00;;;;5063006;28;20206;-75
2023/01/10 05:44:09;;;;;;;6.50;1.52;;;;;12.50;101317.00;;;;5051957;28;20629;-74
2023/01/10 05:46:36;;;;;;;5.22;1.30;;;;;12.60;101320.00;;;;5050992;28;20227;-75
2023/01/10 05:49:04;;;;;;;3.67;1.00;;;;;12.60;101323.00;;;;5050748;28;20553;-75
2023/01/10 05:51:32;;;;;;;5.82;1.40;;;;;12.60;101330.00;;;;5051742;28;20751;-75
2023/01/10 05:54:01;;;;;;;4.43;1.02;;;;;12.60;101335.00;;;;5056889;28;20233;-75
2023/01/10 05:56:28;;;;;;;8.57;1.70;;;;;12.60;101333.00;;;;5050846;28;20206;-75
2023/01/10 05:58:56;;;;;;;9.70;1.35;;;;;12.60;101340.00;;;;5058812;28;20227;-75
2023/01/10 06:01:23;;;;;;;7.05;1.83;;;;;12.60;101335.00;;;;5051828;28;20200;-75
2023/01/10 06:03:50;;;;;;;5.28;1.63;;;;;12.60;101333.00;;;;5059997;28;20207;-75
2023/01/10 06:06:18;;;;;;;4.90;1.17;;;;;12.60;101337.00;;;;5052276;28;20199;-75
2023/01/10 06:08:46;;;;;;;6.38;1.90;;;;;12.70;101344.00;;;;5067213;28;20214;-74
2023/01/10 06:11:13;;;;;;;7.45;2.20;;;;;12.70;101351.00;;;;5050430;28;20195;-75
2023/01/10 06:13:41;;;;;;;6.30;2.20;;;;;12.70;101346.00;;;;5050587;28;20242;-75
2023/01/10 06:16:08;;;;;;;6.57;1.13;;;;;12.70;101358.00;;;;5050575;28;20573;-75
2023/01/10 06:18:35;;;;;;;9.07;1.60;;;;;12.70;101356.00;;;;5059433;28;20199;-75
2023/01/10 06:21:02;;;;;;;6.38;1.50;;;;;12.70;101356.00;;;;5063047;28;20740;-75
2023/01/10 06:23:30;;;;;;;5.70;1.58;;;;;12.70;101360.00;;;;5051682;28;20211;-75
2023/01/10 06:25:58;;;;;;;8.88;2.10;;;;;12.70;101362.00;;;;5050416;28;20203;-76
2023/01/10 06:28:25;;;;;;;7.25;1.40;;;;;12.80;101359.00;;;;5048106;28;20211;-74
2023/01/10 06:30:53;;;;;;;7.00;1.33;;;;;12.80;101365.00;;;;5054153;28;20687;-74
2023/01/10 06:33:20;;;;;;;9.32;2.17;;;;;12.80;101365.00;;;;5049041;28;20223;-74
2023/01/10 06:35:47;;;;;;;7.75;1.55;;;;;12.80;101366.00;;;;5048805;28;20552;-74
2023/01/10 06:38:15;;;;;;;6.93;2.10;;;;;12.80;101379.00;;;;5052710;28;20203;-75
2023/01/10 06:40:42;;;;;;;9.45;2.30;;;;;12.80;101379.00;;;;5050958;28;20207;-76
2023/01/10 06:43:11;;;;;;;5.60;1.60;;;;;12.80;101387.00;;;;5055563;28;20203;-76
2023/01/10 06:45:38;;;;;;;14.80;2.40;;;;;12.80;101388.00;;;;5053724;28;20223;-76
2023/01/10 06:48:05;;;;;;;7.28;1.83;;;;;12.80;101387.00;;;;5051384;28;20207;-76
2023/01/10 06:50:33;;;;;;;5.63;1.67;;;;;12.80;101392.00;;;;5052259;28;20207;-75
2023/01/10 06:53:02;;;;;;;9.15;2.25;;;;;12.80;101395.00;;;;5055532;28;20223;-76
2023/01/10 06:55:30;;;;;;;13.90;1.77;;;;;12.80;101387.00;;;;5051434;28;20195;-77
2023/01/10 06:57:58;;;;;;;2.95;1.30;;;;;12.80;101396.00;;;;5058630;28;20240;-75
2023/01/10 07:00:27;;;;;;;5.65;2.10;;;;;12.70;101400.00;;;;5054829;28;20196;-76
2023/01/10 07:02:56;;;;;;;10.07;1.92;;;;;12.70;101409.00;;;;5047547;28;20680;-75
2023/01/10 07:05:23;;;;;;;8.57;2.53;;;;;12.70;101407.00;;;;5060216;28;20234;-75
2023/01/10 07:07:50;;;;;;;10.73;1.88;;;;;12.70;101406.00;;;;5057584;28;20194;-75
2023/01/10 07:10:18;;;;;;;10.40;1.75;;;;;12.70;101394.00;;;;5058563;28;20390;-75
2023/01/10 07:12:45;;;;;;;6.00;2.08;;;;;12.70;101408.00;;;;5058234;28;20569;-75
2023/01/10 07:15:12;;;;;;;6.32;1.60;;;;;12.60;101414.00;;;;5063390;28;20192;-75
2023/01/10 07:17:41;;;;;;;12.43;2.58;;;;;12.60;101413.00;;;;5055158;28;20206;-75
2023/01/10 07:20:10;;;;;;;11.52;2.33;;;;;12.60;101430.00;;;;5059917;28;20209;-75
2023/01/10 07:22:37;;;;;;;11.82;3.00;;;;;12.60;101437.00;;;;5055179;28;21050;-75
2023/01/10 07:25:05;;;;;;;9.38;2.85;;;;;12.50;101446.00;;;;5053827;28;20191;-75
2023/01/10 07:27:32;;;;;;;8.98;2.45;;;;;12.50;101449.00;;;;5056361;28;20196;-74
2023/01/10 07:30:00;;;;;;;8.88;2.55;;;;;12.50;101458.00;;;;5052857;28;20199;-75
2023/01/10 07:32:27;;;;;;;9.02;2.10;;;;;12.50;101455.00;;;;5054632;28;20214;-75
2023/01/10 07:34:56;;;;;;;9.98;2.60;;;;;12.50;101464.00;;;;5057159;28;20257;-75
2023/01/10 07:37:23;;;;;;;11.80;3.25;;;;;12.50;101465.00;;;;5052617;28;20199;-75
2023/01/10 07:39:51;;;;;;;5.38;1.90;;;;;12.50;101477.00;;;;5056335;28;20208;-75
2023/01/10 07:42:18;;;;;;;7.43;2.00;;;;;12.50;101476.00;;;;5056885;28;20211;-75
2023/01/10 07:44:45;;;;;;;7.53;2.13;;;;;12.50;101486.00;;;;5050132;28;20234;-75
2023/01/10 07:47:13;;;;;;;6.95;2.50;;;;;12.50;101472.00;;;;5055499;28;20661;-75
2023/01/10 07:49:40;;;;;;;8.55;2.17;;;;;12.40;101469.00;;;;5060934;28;20210;-75
2023/01/10 07:52:08;;;;;;;8.45;2.10;;;;;12.40;101476.00;;;;5055538;28;20192;-75
2023/01/10 07:54:36;;;;;;;8.27;2.47;;;;;12.40;101477.00;;;;5059515;28;20219;-75
2023/01/10 07:57:03;;;;;;;13.55;2.72;;;;;12.40;101485.00;;;;5061571;28;20227;-74
2023/01/10 07:59:30;;;;;;;8.25;2.85;;;;;12.40;101480.00;;;;5060878;28;20195;-74
2023/01/10 08:01:58;;;;;;;5.15;2.28;;;;;12.40;101484.00;;;;5051305;28;20207;-75
2023/01/10 08:04:25;;;;;;;11.73;2.40;;;;;12.40;101481.00;;;;5049773;28;20231;-75
2023/01/10 08:06:55;;;;;;;10.27;2.78;;;;;12.30;101475.00;;;;5065422;28;20187;-75
2023/01/10 08:09:24;;;;;;;6.05;2.08;;;;;12.30;101493.00;;;;5050056;28;20662;-75
2023/01/10 08:11:51;;;;;;;7.53;2.17;;;;;12.30;101484.00;;;;5048620;28;20586;-74
2023/01/10 08:14:18;;;;;;;9.93;1.70;;;;;12.30;101492.00;;;;5046675;28;20216;-74
2023/01/10 08:16:45;;;;;;;8.43;1.85;;;;;12.30;101508.00;;;;5049798;28;20203;-75
2023/01/10 08:19:15;;;;;;;13.88;2.55;;;;;12.30;101495.00;;;;5049227;28;20223;-75
2023/01/10 08:21:43;;;;;;;13.45;2.47;;;;;12.30;101502.00;;;;5047242;28;20310;-75
2023/01/10 08:24:10;;;;;;;10.20;2.40;;;;;12.30;101494.00;;;;5047914;28;20208;-75
2023/01/10 08:26:39;;;;;;;8.60;2.13;;;;;12.20;101500.00;;;;5047111;28;20210;-75
2023/01/10 08:29:06;;;;;;;9.30;2.45;;;;;12.30;101494.00;;;;5046528;28;20283;-76
2023/01/10 08:31:33;;;;;;;9.88;2.30;;;;;12.30;101491.00;;;;5050243;28;20918;-76
2023/01/10 08:34:00;;;;;;;7.10;1.80;;;;;12.30;101502.00;;;;5050162;28;20231;-75
2023/01/10 08:36:28;;;;;;;12.25;2.53;;;;;12.30;101502.00;;;;5046957;28;20249;-74
2023/01/10 08:38:56;;;;;;;7.88;2.63;;;;;12.40;101494.00;;;;5053680;28;20232;-75
2023/01/10 08:41:23;;;;;;;10.07;1.95;;;;;12.40;101500.00;;;;5050665;28;20562;-75
2023/01/10 08:43:52;;;;;;;10.60;2.88;;;;;12.40;101494.00;;;;5050042;28;20672;-75
2023/01/10 08:46:19;;;;;;;11.27;2.90;;;;;12.40;101494.00;;;;5064148;28;20235;-75
2023/01/10 08:48:49;;;;;;;14.57;2.20;;;;;12.40;101492.00;;;;5054853;28;20670;-75
2023/01/10 08:51:16;;;;;;;4.90;1.65;;;;;12.40;101489.00;;;;5051381;28;20195;-75
2023/01/10 08:53:43;;;;;;;9.13;2.80;;;;;12.40;101498.00;;;;5060060;28;20241;-75
2023/01/10 08:56:11;;;;;;;5.63;1.95;;;;;12.40;101479.00;;;;5051062;28;20665;-75
2023/01/10 08:58:39;;;;;;;12.02;2.17;;;;;12.40;101479.00;;;;5051739;28;20354;-75
2023/01/10 09:01:10;;;;;;;10.02;2.15;;;;;12.50;101487.00;;;;5058587;28;20203;-75
2023/01/10 09:03:39;;;;;;;12.90;1.95;;;;;12.50;101476.00;;;;5052387;28;20851;-75
2023/01/10 09:06:08;;;;;;;9.38;1.65;;;;;12.50;101479.00;;;;5048997;28;20231;-74
2023/01/10 09:08:35;;;;;;;9.35;1.85;;;;;12.50;101468.00;;;;5051122;28;22099;-76
2023/01/10 09:11:03;;;;;;;12.48;2.67;;;;;12.50;101473.00;;;;5052868;28;20210;-76
2023/01/10 09:13:31;;;;;;;8.38;2.50;;;;;12.50;101491.00;;;;5060825;28;20195;-76
2023/01/10 09:15:59;;;;;;;7.00;2.08;;;;;12.40;101477.00;;;;5058715;28;20202;-75
2023/01/10 09:18:28;;;;;;;8.07;2.58;;;;;12.50;101478.00;;;;5050742;28;20211;-75
2023/01/10 09:20:55;;;;;;;8.90;2.33;;;;;12.50;101479.00;;;;5047884;28;20204;-75
2023/01/10 09:23:23;;;;;;;11.10;1.75;;;;;12.50;101481.00;;;;5047818;28;20203;-75
2023/01/10 09:25:52;;;;;;;6.60;1.85;;;;;12.50;101488.00;;;;5064372;28;20197;-75
2023/01/10 09:28:21;;;;;;;9.38;1.85;;;;;12.50;101478.00;;;;5047678;28;20235;-75
2023/01/10 09:30:48;;;;;;;7.82;2.22;;;;;12.50;101479.00;;;;5048259;28;20215;-75
2023/01/10 09:33:16;;;;;;;8.50;2.33;;;;;12.50;101477.00;;;;5053216;28;20200;-75
2023/01/10 09:35:45;;;;;;;5.60;2.03;;;;;12.50;101469.00;;;;5051249;28;20227;-75
2023/01/10 09:38:15;;;;;;;13.38;2.75;;;;;12.50;101482.00;;;;5056593;28;20203;-75
2023/01/10 09:40:59;;;;;;;9.70;2.15;;;;;12.40;101475.00;;;;5051083;28;20268;-75
2023/01/10 09:43:36;;;;;;;7.30;1.88;;;;;12.50;101487.00;;;;5056093;28;20199;-75
2023/01/10 09:46:07;;;;;;;7.40;2.25;;;;;12.50;101476.00;;;;5058249;28;20786;-75
2023/01/10 09:48:41;;;;;;;5.97;1.88;;;;;12.50;101483.00;;;;5049915;28;20202;-75
2023/01/10 09:51:27;;;;;;;9.73;2.25;;;;;12.40;101492.00;;;;5062215;28;20206;-75
2023/01/10 09:53:58;;;;;;;7.38;1.77;;;;;12.50;101480.00;;;;5063613;28;20203;-75
2023/01/10 09:56:28;;;;;;;10.95;3.15;;;;;12.60;101477.00;;;;5065617;28;20206;-75
2023/01/10 09:58:56;;;;;;;9.15;2.00;;;;;12.50;101472.00;;;;5056699;28;20202;-76
2023/01/10 10:01:27;;;;;;;10.05;2.42;;;;;12.50;101480.00;;;;5063698;28;20214;-75
2023/01/10 10:04:02;;;;;;;7.10;2.10;;;;;12.50;101480.00;;;;5064792;28;20203;-75
2023/01/10 10:06:33;;;;;;;8.80;2.25;;;;;12.60;101495.00;;;;5060774;28;20195;-75
2023/01/10 10:09:01;;;;;;;9.23;1.40;;;;;12.60;101493.00;;;;5060843;28;20199;-75
2023/01/10 10:11:43;;;;;;;6.50;1.98;;;;;12.50;101484.00;;;;5060954;28;20955;-75
2023/01/10 10:14:27;;;;;;;7.85;2.10;;;;;12.60;101477.00;;;;5061552;28;20226;-75
2023/01/10 10:17:17;;;;;;;6.18;1.42;;;;;12.50;101476.00;;;;5050749;28;20278;-75
2023/01/10 10:20:00;;;;;;;10.45;1.80;;;;;12.60;101475.00;;;;5051304;28;20200;-75
2023/01/10 10:22:39;;;;;;;9.25;2.08;;;;;12.60;101472.00;;;;5050540;28;20210;-75
2023/01/10 10:25:18;;;;;;;11.07;2.25;;;;;12.60;101476.00;;;;5051445;28;20592;-76
2023/01/10 10:28:01;;;;;;;7.95;2.20;;;;;12.60;101468.00;;;;5050892;28;20191;-75
2023/01/10 10:30:42;;;;;;;8.80;2.03;;;;;12.70;101481.00;;;;5070883;28;20207;-75
2023/01/10 10:33:29;;;;;;;8.40;1.55;;;;;12.60;101459.00;;;;5058307;28;20203;-75
2023/01/10 10:36:03;;;;;;;13.50;2.03;;;;;12.70;101459.00;;;;5056818;28;20222;-75
2023/01/10 10:38:37;;;;;;;10.00;1.85;;;;;12.70;101458.00;;;;5058962;28;20206;-76
2023/01/10 10:41:09;;;;;;;6.53;1.67;;;;;12.70;101456.00;;;;5050055;28;20674;-75
2023/01/10 10:43:39;;;;;;;8.88;2.00;;;;;12.70;101458.00;;;;5057117;28;20202;-75
2023/01/10 10:46:10;;;;;;;8.98;2.47;;;;;12.70;101455.00;;;;5067709;28;20226;-75
2023/01/10 10:48:42;;;;;;;8.45;1.98;;;;;12.70;101437.00;;;;5062325;28;20222;-75
2023/01/10 10:51:14;;;;;;;9.35;1.80;;;;;12.70;101436.00;;;;5070226;28;20203;-75
2023/01/10 10:53:43;;;;;;;8.80;1.92;;;;;12.70;101435.00;;;;5066390;28;20199;-75
2023/01/10 10:56:15;;;;;;;8.95;1.90;;;;;12.70;101425.00;;;;5064079;28;20229;-75
2023/01/10 10:58:44;;;;;;;8.38;1.67;;;;;12.80;101424.00;;;;5052538;28;20203;-75
2023/01/10 11:01:13;;;;;;;7.53;1.50;;;;;12.80;101429.00;;;;5050544;28;20208;-76
2023/01/10 11:03:46;;;;;;;12.00;2.20;;;;;12.80;101421.00;;;;5057885;28;20210;-75
2023/01/10 11:06:15;;;;;;;8.00;1.88;;;;;12.80;101409.00;;;;5068243;28;20213;-75
2023/01/10 11:08:47;;;;;;;8.50;1.65;;;;;12.80;101424.00;;;;5069450;28;20210;-75
2023/01/10 11:11:20;;;;;;;7.03;1.17;;;;;12.80;101418.00;;;;5070369;28;20203;-75
2023/01/10 11:13:50;;;;;;;10.93;2.00;;;;;12.90;101409.00;;;;5070090;28;20652;-75
2023/01/10 11:16:27;;;;;;;6.57;1.90;;;;;12.80;101401.00;;;;5063107;28;20229;-76
2023/01/10 11:19:20;;;;;;;6.90;1.50;;;;;12.80;101399.00;;;;5069902;28;20203;-75
2023/01/10 11:21:52;;;;;;;8.07;2.17;;;;;12.90;101398.00;;;;5052921;28;20227;-75
2023/01/10 11:24:27;;;;;;;8.77;1.90;;;;;12.90;101401.00;;;;5055594;28;20199;-75
2023/01/10 11:26:56;;;;;;;7.63;1.60;;;;;12.90;101397.00;;;;5059034;28;20209;-75
2023/01/10 11:29:27;;;;;;;6.53;1.45;;;;;12.90;101391.00;;;;5062853;28;20208;-77
2023/01/10 11:31:56;;;;;;;5.95;1.52;;;;;12.90;101387.00;;;;5053213;28;20202;-75
2023/01/10 11:34:25;;;;;;;9.18;1.98;;;;;12.90;101395.00;;;;5049967;28;20211;-75
2023/01/10 11:36:54;;;;;;;9.40;1.80;;;;;13.00;101377.00;;;;5049421;28;20234;-75
2023/01/10 11:39:23;;;;;;;6.82;1.25;;;;;13.00;101372.00;;;;5048407;28;20223;-76
2023/01/10 11:41:52;;;;;;;7.75;2.03;;;;;13.00;101372.00;;;;5047158;28;20204;-75
2023/01/10 11:44:24;;;;;;;4.80;1.40;;;;;13.00;101360.00;;;;5049287;28;20195;-76
2023/01/10 11:46:55;;;;;;;7.93;2.20;;;;;13.10;101371.00;;;;5067739;28;20285;-75
2023/01/10 11:49:29;;;;;;;6.63;1.63;;;;;13.10;101376.00;;;;5057104;28;20199;-75
2023/01/10 11:52:01;;;;;;;7.25;2.00;;;;;13.10;101380.00;;;;5048648;28;20196;-75
2023/01/10 11:54:31;;;;;;;8.50;1.92;;;;;13.20;101374.00;;;;5048706;28;20203;-75
2023/01/10 11:57:02;;;;;;;4.13;1.88;;;;;13.20;101381.00;;;;5049857;28;20211;-75
2023/01/10 11:59:31;;;;;;;7.90;2.10;;;;;13.20;101373.00;;;;5050085;28;20195;-75
2023/01/10 12:02:01;;;;;;;7.30;1.58;;;;;13.20;101367.00;;;;5062671;28;20207;-75
2023/01/10 12:04:31;;;;;;;7.75;1.48;;;;;13.20;101359.00;;;;5062896;28;20206;-76
2023/01/10 12:07:03;;;;;;;4.95;1.58;;;;;13.20;101346.00;;;;5050237;28;20195;-76
2023/01/10 12:09:43;;;;;;;8.93;2.38;;;;;13.20;101343.00;;;;5064642;28;20196;-76
2023/01/10 12:12:22;;;;;;;8.88;1.33;;;;;13.20;101337.00;;;;5057323;28;20230;-76
2023/01/10 12:14:51;;;;;;;5.00;1.38;;;;;13.30;101331.00;;;;5057716;28;20233;-76
2023/01/10 12:17:24;;;;;;;13.77;2.05;;;;;13.20;101326.00;;;;5054999;28;20194;-76
2023/01/10 12:19:54;;;;;;;6.40;1.70;;;;;13.20;101315.00;;;;5056827;28;20215;-75
2023/01/10 12:22:26;;;;;;;10.93;2.15;;;;;13.20;101312.00;;;;5055549;28;20198;-75
2023/01/10 12:24:56;;;;;;;12.13;1.67;;;;;13.20;101310.00;;;;5046058;28;20219;-75
2023/01/10 12:27:26;;;;;;;10.40;1.98;;;;;13.30;101302.00;;;;5052522;28;20198;-76
2023/01/10 12:30:03;;;;;;;5.20;1.60;;;;;13.20;101300.00;;;;5059794;28;20283;-75